Nissan Maru — JG5485 — position and weather

sailwx.info

Track history (hours):
 
Tides and Currents Weather Stations Pressure Air Temp Water Temp Dewpoint Dewpoint Depression Visibility Wind Speed Wind Dir Waves Ship Positions

Nissan Maru

Last reported at 2015-Mar-01 23:32 UTC. Time now 2015-Mar-03 22:40 UTC.
Position N 35°03' E 139°35'.

Length 108 m; draft 7.2 m.

Type: Cargo ship. MMSI: 431400593.

Date/timePositionNaut miles runAvg speedWind from/ knotsBaromVisibWave heightAir tempDewpointWater temp
2015-Mar-01 23:32N 35°03' E 139°35'1312.9
2015-Mar-01 22:33N 35°12' E 139°46'1312.5
2015-Mar-01 21:33N 35°25' E 139°43'1712.6
2015-Mar-01 20:11N 35°34' E 140°01'0 0.0
2015-Mar-01 16:14N 35°34' E 140°01'0 0.0
2015-Mar-01 15:25N 35°34' E 140°01'0 0.0
2015-Mar-01 13:14N 35°34' E 140°01'0 0.0
2015-Mar-01 12:24N 35°34' E 140°01'0 0.0
2015-Feb-28 21:27N 35°34' E 140°01'0 0.0
2015-Feb-28 10:09N 35°33' E 140°01'2 0.8
2015-Feb-28 07:33N 35°32' E 139°59'1211.7
2015-Feb-28 06:33N 35°29' E 139°45'1 1.1
2015-Feb-28 05:31N 35°29' E 139°44'0 0.0
2015-Feb-28 04:31N 35°29' E 139°44'0 0.0
2015-Feb-28 03:31N 35°29' E 139°44'0 0.0
2015-Feb-28 02:31N 35°29' E 139°44'0 0.0
2015-Feb-28 01:31N 35°29' E 139°44'0 0.0
2015-Feb-28 00:31N 35°29' E 139°44'0 0.0
2015-Feb-27 23:31N 35°29' E 139°44'0 0.0
2015-Feb-27 22:31N 35°29' E 139°44'0 0.0
2015-Feb-27 21:31N 35°29' E 139°44'0 0.0
2015-Feb-27 20:31N 35°29' E 139°44'0 0.0
2015-Feb-27 19:31N 35°29' E 139°44'0 0.0
2015-Feb-27 18:31N 35°29' E 139°44'0 0.0
2015-Feb-27 17:31N 35°29' E 139°44'0 0.0
2015-Feb-27 16:31N 35°29' E 139°44'0 0.0
2015-Feb-27 15:31N 35°29' E 139°44'0 0.0
2015-Feb-27 14:28N 35°29' E 139°44'0 0.0
2015-Feb-27 13:31N 35°29' E 139°44'0 0.0
2015-Feb-27 12:31N 35°29' E 139°44'0 0.0
2015-Feb-27 11:25N 35°29' E 139°44'0 0.0
2015-Feb-27 10:31N 35°29' E 139°44'0 0.0
2015-Feb-27 09:31N 35°29' E 139°44'0 0.0
2015-Feb-27 08:31N 35°29' E 139°44'0 0.0
2015-Feb-27 07:31N 35°29' E 139°44'0 0.0
2015-Feb-27 06:25N 35°29' E 139°44'0 0.0
2015-Feb-27 05:31N 35°29' E 139°44'0 0.0
2015-Feb-27 04:31N 35°29' E 139°44'0 0.0
2015-Feb-27 03:31N 35°29' E 139°44'0 0.0
2015-Feb-27 02:31N 35°29' E 139°44'0 0.0
2015-Feb-27 01:31N 35°29' E 139°44'1 1.3
2015-Feb-27 00:33N 35°29' E 139°46'1 0.8
2015-Feb-26 23:32N 35°29' E 139°47'0 0.0
2015-Feb-26 22:29N 35°29' E 139°47'0 0.1
2015-Feb-26 21:32N 35°29' E 139°47'0 0.1
2015-Feb-26 20:32N 35°29' E 139°46'0 0.0
2015-Feb-26 19:32N 35°29' E 139°46'0 0.0
2015-Feb-26 18:32N 35°29' E 139°46'0 0.0
2015-Feb-26 17:32N 35°29' E 139°46'0 0.0
2015-Feb-26 16:32N 35°29' E 139°46'0 0.0
2015-Feb-26 15:26N 35°29' E 139°46'0 0.1
2015-Feb-26 14:32N 35°29' E 139°47'0 0.1
2015-Feb-26 13:32N 35°29' E 139°47'0 0.1
2015-Feb-26 12:32N 35°29' E 139°46'0 0.0
2015-Feb-26 11:32N 35°29' E 139°47'0 0.0
2015-Feb-26 10:32N 35°29' E 139°47'0 0.0
2015-Feb-26 09:32N 35°29' E 139°47'0 0.0
2015-Feb-26 08:32N 35°29' E 139°47'0 0.0
2015-Feb-26 07:32N 35°29' E 139°46'0 0.0
2015-Feb-26 06:23N 35°29' E 139°46'0 0.0
2015-Feb-26 05:32N 35°29' E 139°46'0 0.0
2015-Feb-26 04:34N 35°29' E 139°46'0 0.0
2015-Feb-26 03:34N 35°29' E 139°46'0 0.0
2015-Feb-26 02:31N 35°29' E 139°46'0 0.0
2015-Feb-26 01:31N 35°29' E 139°46'0 0.0
2015-Feb-26 00:31N 35°29' E 139°46'0 0.0
2015-Feb-25 23:13N 35°29' E 139°46'1 0.4
2015-Feb-25 21:25N 35°29' E 139°46'1 0.4
2015-Feb-25 18:14N 35°29' E 139°44'0 0.0
2015-Feb-25 17:32N 35°29' E 139°44'0 0.0
2015-Feb-25 16:32N 35°29' E 139°44'0 0.0
2015-Feb-25 15:32N 35°29' E 139°44'0 0.0
2015-Feb-25 14:32N 35°29' E 139°44'0 0.0
2015-Feb-25 13:32N 35°29' E 139°44'0 0.0
2015-Feb-25 12:32N 35°29' E 139°44'0 0.0
2015-Feb-25 11:32N 35°29' E 139°44'0 0.0
2015-Feb-25 10:32N 35°29' E 139°44'0 0.1
2015-Feb-25 09:33N 35°29' E 139°44'10 9.6
2015-Feb-25 08:33N 35°20' E 139°44'1211.6
2015-Feb-25 07:33N 35°08' E 139°45'1312.5
2015-Feb-25 06:30N 34°58' E 139°34'  
Track history (hours):
 
Tides and Currents Weather Stations Pressure Air Temp Water Temp Dewpoint Dewpoint Depression Visibility Wind Speed Wind Dir Waves Ship Positions

Nissan Maru

Last reported at 2015-Mar-01 23:32 UTC. Time now 2015-Mar-03 22:40 UTC.
Position N 35°03' E 139°35'.

Length 108 m; draft 7.2 m.

Type: Cargo ship. MMSI: 431400593.

Date/timePositionNaut miles runAvg speedWind from/ knotsBaromVisibWave heightAir tempDewpointWater temp
2015-Mar-01 23:32N 35°03' E 139°35'1312.9
2015-Mar-01 22:33N 35°12' E 139°46'1312.5
2015-Mar-01 21:33N 35°25' E 139°43'1712.6
2015-Mar-01 20:11N 35°34' E 140°01'0 0.0
2015-Mar-01 16:14N 35°34' E 140°01'0 0.0
2015-Mar-01 15:25N 35°34' E 140°01'0 0.0
2015-Mar-01 13:14N 35°34' E 140°01'0 0.0
2015-Mar-01 12:24N 35°34' E 140°01'0 0.0
2015-Feb-28 21:27N 35°34' E 140°01'0 0.0
2015-Feb-28 10:09N 35°33' E 140°01'2 0.8
2015-Feb-28 07:33N 35°32' E 139°59'1211.7
2015-Feb-28 06:33N 35°29' E 139°45'1 1.1
2015-Feb-28 05:31N 35°29' E 139°44'0 0.0
2015-Feb-28 04:31N 35°29' E 139°44'0 0.0
2015-Feb-28 03:31N 35°29' E 139°44'0 0.0
2015-Feb-28 02:31N 35°29' E 139°44'0 0.0
2015-Feb-28 01:31N 35°29' E 139°44'0 0.0
2015-Feb-28 00:31N 35°29' E 139°44'0 0.0
2015-Feb-27 23:31N 35°29' E 139°44'0 0.0
2015-Feb-27 22:31N 35°29' E 139°44'0 0.0
2015-Feb-27 21:31N 35°29' E 139°44'0 0.0
2015-Feb-27 20:31N 35°29' E 139°44'0 0.0
2015-Feb-27 19:31N 35°29' E 139°44'0 0.0
2015-Feb-27 18:31N 35°29' E 139°44'0 0.0
2015-Feb-27 17:31N 35°29' E 139°44'0 0.0
2015-Feb-27 16:31N 35°29' E 139°44'0 0.0
2015-Feb-27 15:31N 35°29' E 139°44'0 0.0
2015-Feb-27 14:28N 35°29' E 139°44'0 0.0
2015-Feb-27 13:31N 35°29' E 139°44'0 0.0
2015-Feb-27 12:31N 35°29' E 139°44'0 0.0
2015-Feb-27 11:25N 35°29' E 139°44'0 0.0
2015-Feb-27 10:31N 35°29' E 139°44'0 0.0
2015-Feb-27 09:31N 35°29' E 139°44'0 0.0
2015-Feb-27 08:31N 35°29' E 139°44'0 0.0
2015-Feb-27 07:31N 35°29' E 139°44'0 0.0
2015-Feb-27 06:25N 35°29' E 139°44'0 0.0
2015-Feb-27 05:31N 35°29' E 139°44'0 0.0
2015-Feb-27 04:31N 35°29' E 139°44'0 0.0
2015-Feb-27 03:31N 35°29' E 139°44'0 0.0
2015-Feb-27 02:31N 35°29' E 139°44'0 0.0
2015-Feb-27 01:31N 35°29' E 139°44'1 1.3
2015-Feb-27 00:33N 35°29' E 139°46'1 0.8
2015-Feb-26 23:32N 35°29' E 139°47'0 0.0
2015-Feb-26 22:29N 35°29' E 139°47'0 0.1
2015-Feb-26 21:32N 35°29' E 139°47'0 0.1
2015-Feb-26 20:32N 35°29' E 139°46'0 0.0
2015-Feb-26 19:32N 35°29' E 139°46'0 0.0
2015-Feb-26 18:32N 35°29' E 139°46'0 0.0
2015-Feb-26 17:32N 35°29' E 139°46'0 0.0
2015-Feb-26 16:32N 35°29' E 139°46'0 0.0
2015-Feb-26 15:26N 35°29' E 139°46'0 0.1
2015-Feb-26 14:32N 35°29' E 139°47'0 0.1
2015-Feb-26 13:32N 35°29' E 139°47'0 0.1
2015-Feb-26 12:32N 35°29' E 139°46'0 0.0
2015-Feb-26 11:32N 35°29' E 139°47'0 0.0
2015-Feb-26 10:32N 35°29' E 139°47'0 0.0
2015-Feb-26 09:32N 35°29' E 139°47'0 0.0
2015-Feb-26 08:32N 35°29' E 139°47'0 0.0
2015-Feb-26 07:32N 35°29' E 139°46'0 0.0
2015-Feb-26 06:23N 35°29' E 139°46'0 0.0
2015-Feb-26 05:32N 35°29' E 139°46'0 0.0
2015-Feb-26 04:34N 35°29' E 139°46'0 0.0
2015-Feb-26 03:34N 35°29' E 139°46'0 0.0
2015-Feb-26 02:31N 35°29' E 139°46'0 0.0
2015-Feb-26 01:31N 35°29' E 139°46'0 0.0
2015-Feb-26 00:31N 35°29' E 139°46'0 0.0
2015-Feb-25 23:13N 35°29' E 139°46'1 0.4
2015-Feb-25 21:25N 35°29' E 139°46'1 0.4
2015-Feb-25 18:14N 35°29' E 139°44'0 0.0
2015-Feb-25 17:32N 35°29' E 139°44'0 0.0
2015-Feb-25 16:32N 35°29' E 139°44'0 0.0
2015-Feb-25 15:32N 35°29' E 139°44'0 0.0
2015-Feb-25 14:32N 35°29' E 139°44'0 0.0
2015-Feb-25 13:32N 35°29' E 139°44'0 0.0
2015-Feb-25 12:32N 35°29' E 139°44'0 0.0
2015-Feb-25 11:32N 35°29' E 139°44'0 0.0
2015-Feb-25 10:32N 35°29' E 139°44'0 0.1
2015-Feb-25 09:33N 35°29' E 139°44'10 9.6
2015-Feb-25 08:33N 35°20' E 139°44'1211.6
2015-Feb-25 07:33N 35°08' E 139°45'1312.5
2015-Feb-25 06:30N 34°58' E 139°34'  

Dump ship's entire track history